ADDS TAF Data INFO
IDs: Format: Raw Decoded Include METARs

Data at: 0710 UTC 24 Nov 2017

KPEQ 240655Z AUTO 17004KT 10SM CLR 04/M03 A3005 RMK AO2 T00431026

KPEQ 240520Z 2406/2506 23005KT P6SM FEW200
  FM241900 25012G18KT P6SM SKC